Allamuchy, New Jersey
Current Conditions -  °F | °C
As of 1:53 AM on Saturday 01 Nov 2014 (Local Time) from KFWN Reporting Station
Overcast Overcast  
Wind Chill: 43°   Ceiling: 2100
Heat Index: 48°   Visibility: 10mi
Dew Point: 39°   Wind: 13mph
Humidity: 71%   Direction: 30°NNE
Pressure: 29.87"   Gusts: NA
Location:  40.92°N, 74.81°W
Report Text: KFWN 010553Z AUTO 03011KT 10SM OVC021 09/04 A2987 RMK AO2 RAB29E41 SLP117 P0000 60000 T00890039 10106 20089 56006
Loading
Personal Weather Stations






























Interactive Weather Map
Tropical Storm Tracking
New forecast layout! Learn more

10-Day Weather Forecast

Advertisements
Track Severe Weather on mobile